Time;durP1;ratioP1;P1;durP2;ratioP2;P2;SDS_P1;SDS_P2;PMS_P1;PMS_P2;Temp;Humidity;BMP_temperature;BMP_pressure;BME280_temperature;BME280_humidity;BME280_pressure;Samples;Min_cycle;Max_cycle;Signal;HPM_P1;HPM_P2
2022/03/19 00:01:24;;;;;;;0.17;0.17;;;4.00;99.90;;;;;;5133689;27;20118;-83
2022/03/19 00:03:50;;;;;;;0.20;0.20;;;4.00;99.90;;;;;;5117134;27;20046;-81
2022/03/19 00:06:17;;;;;;;0.20;0.20;;;4.70;99.90;;;;;;5134012;27;20079;-82
2022/03/19 00:08:44;;;;;;;0.20;0.20;;;4.60;99.90;;;;;;5100538;27;20043;-83
2022/03/19 00:11:10;;;;;;;0.17;0.17;;;4.10;99.90;;;;;;5100206;27;20043;-83
2022/03/19 00:13:37;;;;;;;0.10;0.10;;;4.00;99.90;;;;;;5133216;27;20046;-81
2022/03/19 00:16:05;;;;;;;0.20;0.20;;;4.00;99.90;;;;;;5133939;27;20043;-81
2022/03/19 00:18:31;;;;;;;0.20;0.20;;;3.90;99.90;;;;;;5133108;27;20061;-83
2022/03/19 00:20:58;;;;;;;0.20;0.20;;;4.20;99.90;;;;;;5100203;27;20039;-81
2022/03/19 00:23:25;;;;;;;0.20;0.20;;;3.90;99.90;;;;;;5116098;27;20042;-81
2022/03/19 00:25:52;;;;;;;0.20;0.20;;;3.90;99.90;;;;;;5100149;27;20043;-81
2022/03/19 00:28:19;;;;;;;0.10;0.10;;;4.40;99.90;;;;;;5116273;27;20401;-83
2022/03/19 00:30:47;;;;;;;0.20;0.20;;;4.60;99.90;;;;;;5100300;27;20084;-81
2022/03/19 00:33:14;;;;;;;0.20;0.20;;;4.00;99.90;;;;;;5150592;27;20087;-81
2022/03/19 00:35:41;;;;;;;0.10;0.10;;;4.00;99.90;;;;;;5116195;27;20381;-81
2022/03/19 00:38:07;;;;;;;0.20;0.20;;;3.90;99.90;;;;;;5133512;27;20096;-83
2022/03/19 00:40:37;;;;;;;0.20;0.20;;;3.90;99.90;;;;;;5099697;27;20051;-81
2022/03/19 00:43:04;;;;;;;0.20;0.20;;;4.00;99.90;;;;;;5099910;27;20035;-83
2022/03/19 00:45:30;;;;;;;0.10;0.10;;;3.90;99.90;;;;;;5116057;27;20041;-82
2022/03/19 00:47:57;;;;;;;0.10;0.10;;;3.90;99.90;;;;;;5099927;28;20072;-82
2022/03/19 00:50:24;;;;;;;0.38;0.38;;;3.80;99.90;;;;;;5132882;27;20039;-81
2022/03/19 00:52:51;;;;;;;0.20;0.20;;;3.90;99.90;;;;;;5116524;28;20039;-83
2022/03/19 00:55:18;;;;;;;0.20;0.20;;;3.80;99.90;;;;;;5116160;28;20063;-81
2022/03/19 00:57:46;;;;;;;0.20;0.20;;;3.80;99.90;;;;;;5116498;28;20053;-81
2022/03/19 01:00:15;;;;;;;0.20;0.20;;;4.20;99.90;;;;;;5150885;28;20051;-81
2022/03/19 01:02:43;;;;;;;0.10;0.10;;;3.70;99.90;;;;;;5132940;28;20137;-82
2022/03/19 01:05:12;;;;;;;0.20;0.20;;;3.70;99.90;;;;;;5116126;28;20122;-82
2022/03/19 01:07:47;;;;;;;0.40;0.40;;;3.70;99.90;;;;;;5132714;28;20039;-81
2022/03/19 01:10:16;;;;;;;0.20;0.20;;;3.60;99.90;;;;;;5150121;28;20043;-82
2022/03/19 01:12:43;;;;;;;0.20;0.20;;;3.60;99.90;;;;;;5149928;28;20126;-83
2022/03/19 01:15:11;;;;;;;0.20;0.20;;;3.60;99.90;;;;;;5132750;28;20046;-81
2022/03/19 01:17:38;;;;;;;0.20;0.20;;;3.50;99.90;;;;;;5149676;28;20594;-81
2022/03/19 01:20:06;;;;;;;0.20;0.20;;;4.30;99.90;;;;;;5099600;28;20039;-82
2022/03/19 01:22:33;;;;;;;0.20;0.20;;;3.50;99.90;;;;;;5115886;28;20592;-81
2022/03/19 01:25:04;;;;;;;0.20;0.20;;;3.50;99.90;;;;;;5115992;28;20065;-81
2022/03/19 01:27:34;;;;;;;0.20;0.20;;;4.30;99.90;;;;;;5132636;28;20042;-82
2022/03/19 01:30:03;;;;;;;0.20;0.20;;;3.40;99.90;;;;;;5133215;28;20043;-83
2022/03/19 01:32:29;;;;;;;0.20;0.20;;;3.40;99.90;;;;;;5115603;28;20070;-82
2022/03/19 01:34:56;;;;;;;0.10;0.10;;;3.40;99.90;;;;;;5099368;27;20078;-81
2022/03/19 01:37:23;;;;;;;0.17;0.17;;;3.40;99.90;;;;;;5119084;27;20042;-81
2022/03/19 01:39:53;;;;;;;0.20;0.20;;;3.40;99.90;;;;;;5120023;27;20039;-81
2022/03/19 01:42:24;;;;;;;0.15;0.15;;;3.80;99.90;;;;;;5136512;27;20031;-82
2022/03/19 01:44:53;;;;;;;0.10;0.10;;;3.30;99.90;;;;;;5136511;27;20043;-81
2022/03/19 01:47:20;;;;;;;0.20;0.20;;;4.20;99.90;;;;;;5119869;27;20039;-82
2022/03/19 01:49:47;;;;;;;0.20;0.20;;;3.20;99.90;;;;;;5119763;27;20047;-81
2022/03/19 01:52:14;;;;;;;0.20;0.20;;;3.20;99.90;;;;;;5120067;27;20484;-81
2022/03/19 01:54:44;;;;;;;0.10;0.10;;;3.10;99.90;;;;;;5118740;27;20504;-82
2022/03/19 01:57:14;;;;;;;0.20;0.20;;;3.10;99.90;;;;;;5136289;27;20050;-82
2022/03/19 01:59:43;;;;;;;0.20;0.20;;;3.10;99.90;;;;;;5119663;27;20035;-82
2022/03/19 02:02:13;;;;;;;0.22;0.22;;;3.00;99.90;;;;;;5119372;27;20035;-81
2022/03/19 02:04:41;;;;;;;0.10;0.10;;;2.90;99.90;;;;;;5119507;27;20040;-83
2022/03/19 02:07:10;;;;;;;0.10;0.10;;;2.90;99.90;;;;;;5153023;27;20130;-82
2022/03/19 02:09:38;;;;;;;0.17;0.17;;;3.30;99.90;;;;;;5118737;27;20552;-81
2022/03/19 02:12:06;;;;;;;0.30;0.30;;;3.20;99.90;;;;;;5118846;27;20082;-82
2022/03/19 02:14:38;;;;;;;0.20;0.20;;;2.90;99.90;;;;;;5118613;27;20047;-81
2022/03/19 02:17:06;;;;;;;0.20;0.20;;;2.90;99.90;;;;;;5119029;27;20035;-83
2022/03/19 02:19:34;;;;;;;0.20;0.20;;;2.80;99.90;;;;;;5135652;27;20039;-83
2022/03/19 02:22:00;;;;;;;0.20;0.20;;;2.80;99.90;;;;;;5135948;27;20031;-81
2022/03/19 02:27:12;;;;;;;0.20;0.20;;;3.20;99.90;;;;;;5137405;27;20138;-82
2022/03/19 02:29:39;;;;;;;0.20;0.20;;;2.90;99.90;;;;;;5135197;27;20558;-82
2022/03/19 02:32:07;;;;;;;0.20;0.20;;;2.70;99.90;;;;;;5135534;27;20039;-82
2022/03/19 02:34:34;;;;;;;0.20;0.20;;;2.70;99.90;;;;;;5152406;27;20043;-82
2022/03/19 02:37:01;;;;;;;0.20;0.20;;;2.70;99.90;;;;;;5135830;27;20100;-81
2022/03/19 02:39:30;;;;;;;0.20;0.20;;;2.60;99.90;;;;;;5135715;27;20035;-82
2022/03/19 02:42:06;;;;;;;0.20;0.20;;;2.60;99.90;;;;;;5135832;27;20035;-82
2022/03/19 02:44:34;;;;;;;0.20;0.20;;;2.50;99.90;;;;;;5152468;27;20078;-82
2022/03/19 02:47:04;;;;;;;0.10;0.10;;;2.80;99.90;;;;;;5118303;27;20039;-82
2022/03/19 02:49:31;;;;;;;0.25;0.25;;;2.50;99.90;;;;;;5152329;27;20068;-83
2022/03/19 02:51:58;;;;;;;0.20;0.20;;;2.40;99.90;;;;;;5135380;27;20047;-81
2022/03/19 02:54:28;;;;;;;0.20;0.20;;;2.60;99.90;;;;;;5152492;27;20043;-82
2022/03/19 02:56:55;;;;;;;0.13;0.13;;;2.40;99.90;;;;;;5135176;27;20126;-83
2022/03/19 02:59:31;;;;;;;0.20;0.20;;;2.40;99.90;;;;;;5152386;27;20031;-83
2022/03/19 03:02:00;;;;;;;0.20;0.20;;;2.40;99.90;;;;;;5152183;27;20031;-83
2022/03/19 03:04:28;;;;;;;0.20;0.20;;;2.30;99.90;;;;;;5135089;27;20039;-81
2022/03/19 03:06:57;;;;;;;0.20;0.20;;;2.30;99.90;;;;;;5134668;27;20115;-81
2022/03/19 03:09:25;;;;;;;0.20;0.20;;;2.20;99.90;;;;;;5135373;27;20039;-82
2022/03/19 03:11:53;;;;;;;0.20;0.20;;;3.00;99.90;;;;;;5134994;27;20050;-83
2022/03/19 03:14:21;;;;;;;0.22;0.22;;;2.30;99.90;;;;;;5134897;27;20735;-82
2022/03/19 03:16:49;;;;;;;0.28;0.28;;;2.90;99.90;;;;;;5134671;27;20035;-82
2022/03/19 03:19:17;;;;;;;0.20;0.20;;;3.10;99.90;;;;;;5152068;27;20030;-83
2022/03/19 03:21:47;;;;;;;0.20;0.20;;;2.20;99.90;;;;;;5134768;27;20126;-83
2022/03/19 03:24:15;;;;;;;0.20;0.20;;;1.90;99.90;;;;;;5151708;27;20039;-82
2022/03/19 03:26:43;;;;;;;0.17;0.17;;;2.60;99.90;;;;;;5134718;27;20087;-83
2022/03/19 03:29:14;;;;;;;0.20;0.20;;;2.10;99.90;;;;;;5135159;27;20058;-82
2022/03/19 03:31:41;;;;;;;0.17;0.17;;;2.10;99.90;;;;;;5151665;27;20096;-82
2022/03/19 03:34:07;;;;;;;0.20;0.20;;;2.10;99.90;;;;;;5134349;27;20039;-81
2022/03/19 03:36:34;;;;;;;0.13;0.13;;;2.10;99.90;;;;;;5134774;27;20062;-82
2022/03/19 03:39:02;;;;;;;0.20;0.20;;;2.10;99.90;;;;;;5134635;27;20072;-81
2022/03/19 03:41:28;;;;;;;0.10;0.10;;;2.00;99.90;;;;;;5134615;27;20097;-81
2022/03/19 03:43:55;;;;;;;0.20;0.20;;;2.60;99.90;;;;;;5134320;27;20070;-82
2022/03/19 03:46:22;;;;;;;0.20;0.20;;;2.00;99.90;;;;;;5134143;27;20095;-81
2022/03/19 03:48:48;;;;;;;0.20;0.20;;;2.00;99.90;;;;;;5117208;27;20042;-81
2022/03/19 03:51:16;;;;;;;0.20;0.20;;;1.90;99.90;;;;;;5134360;27;20494;-81
2022/03/19 03:53:47;;;;;;;0.20;0.20;;;1.90;99.90;;;;;;5150606;27;20043;-82
2022/03/19 03:56:14;;;;;;;0.20;0.20;;;1.90;99.90;;;;;;5130263;28;20188;-81
2022/03/19 03:58:42;;;;;;;0.20;0.20;;;1.90;99.90;;;;;;5112393;28;20118;-82
2022/03/19 04:01:09;;;;;;;0.20;0.20;;;2.10;99.90;;;;;;5113902;28;20040;-82
2022/03/19 04:03:36;;;;;;;0.20;0.20;;;1.80;99.90;;;;;;5113590;28;20035;-82
2022/03/19 04:06:03;;;;;;;0.20;0.20;;;1.80;99.90;;;;;;5113206;28;20488;-83
2022/03/19 04:08:31;;;;;;;0.20;0.20;;;1.80;99.90;;;;;;5130226;28;20032;-82
2022/03/19 04:10:57;;;;;;;0.20;0.20;;;2.30;99.90;;;;;;5113232;28;20290;-81
2022/03/19 04:13:24;;;;;;;0.20;0.20;;;1.80;99.90;;;;;;5113195;28;20128;-83
2022/03/19 04:15:51;;;;;;;0.20;0.20;;;1.80;99.90;;;;;;5113138;28;20038;-83
2022/03/19 04:18:18;;;;;;;0.10;0.10;;;1.80;99.90;;;;;;5096833;28;20043;-83
2022/03/19 04:20:44;;;;;;;0.20;0.20;;;2.60;99.90;;;;;;5129797;28;20075;-82
2022/03/19 04:23:11;;;;;;;0.10;0.10;;;2.10;99.90;;;;;;5146979;28;20044;-81
2022/03/19 04:25:38;;;;;;;0.30;0.30;;;1.80;99.90;;;;;;5113480;28;20051;-82
2022/03/19 04:28:05;;;;;;;0.20;0.20;;;1.80;99.90;;;;;;5113318;28;20404;-81
2022/03/19 04:30:31;;;;;;;0.30;0.30;;;1.70;99.90;;;;;;5113384;28;20396;-81
2022/03/19 04:33:00;;;;;;;0.20;0.20;;;1.70;99.90;;;;;;5112820;28;20082;-83
2022/03/19 04:38:17;;;;;;;0.75;0.75;;;1.70;99.90;;;;;;5146776;28;20047;-81
2022/03/19 04:40:46;;;;;;;0.20;0.20;;;1.80;99.90;;;;;;5146846;28;20119;-82
2022/03/19 04:43:13;;;;;;;0.20;0.20;;;1.60;99.90;;;;;;5113173;28;20123;-82
2022/03/19 04:45:41;;;;;;;0.20;0.20;;;2.10;99.90;;;;;;5113020;28;20445;-81
2022/03/19 04:48:08;;;;;;;0.20;0.20;;;1.60;99.90;;;;;;5129460;28;20446;-82
2022/03/19 04:50:37;;;;;;;0.20;0.20;;;2.90;99.90;;;;;;5112890;28;20047;-82
2022/03/19 04:53:06;;;;;;;0.20;0.20;;;1.70;99.90;;;;;;5096517;28;20047;-81
2022/03/19 04:55:34;;;;;;;0.20;0.20;;;1.70;99.90;;;;;;5129238;28;20130;-82
2022/03/19 04:58:03;;;;;;;0.20;0.20;;;1.70;99.90;;;;;;5129269;28;20035;-82
2022/03/19 05:00:30;;;;;;;0.10;0.10;;;1.90;99.90;;;;;;5113404;28;20503;-82
2022/03/19 05:02:58;;;;;;;0.20;0.20;;;1.70;99.90;;;;;;5112992;28;20039;-81
2022/03/19 05:05:25;;;;;;;0.20;0.20;;;1.60;99.90;;;;;;5112861;28;20376;-83
2022/03/19 05:07:53;;;;;;;0.20;0.20;;;2.30;99.90;;;;;;5129121;28;20043;-82
2022/03/19 05:13:06;;;;;;;0.20;0.20;;;1.50;99.90;;;;;;5150672;28;20048;-82
2022/03/19 05:15:34;;;;;;;0.20;0.20;;;1.50;99.90;;;;;;5116873;28;20046;-83
2022/03/19 05:18:01;;;;;;;0.20;0.20;;;1.50;99.90;;;;;;5150394;28;20040;-83
2022/03/19 05:20:28;;;;;;;0.30;0.30;;;1.50;99.90;;;;;;5133439;28;20131;-82
2022/03/19 05:22:55;;;;;;;0.20;0.20;;;2.20;99.90;;;;;;5116549;28;20071;-82
2022/03/19 05:25:22;;;;;;;0.20;0.20;;;1.40;99.90;;;;;;5133294;28;20108;-83
2022/03/19 05:27:49;;;;;;;0.20;0.20;;;1.80;99.90;;;;;;5116196;28;20047;-82
2022/03/19 05:30:15;;;;;;;0.20;0.20;;;2.10;99.90;;;;;;5116427;28;20043;-82
2022/03/19 05:32:43;;;;;;;0.20;0.20;;;1.80;99.90;;;;;;5116668;28;20054;-81
2022/03/19 05:35:10;;;;;;;0.20;0.20;;;1.40;99.90;;;;;;5116052;28;20031;-82
2022/03/19 05:37:37;;;;;;;0.20;0.20;;;2.00;99.90;;;;;;5116408;28;20529;-83
2022/03/19 05:40:07;;;;;;;0.30;0.30;;;2.10;99.90;;;;;;5099524;28;20563;-83
2022/03/19 05:42:34;;;;;;;0.20;0.20;;;1.40;99.90;;;;;;5132857;28;20404;-83
2022/03/19 05:45:00;;;;;;;0.30;0.30;;;1.40;99.90;;;;;;5099217;28;20039;-82
2022/03/19 05:47:27;;;;;;;0.20;0.20;;;1.40;99.90;;;;;;5133160;28;20048;-83
2022/03/19 05:49:54;;;;;;;0.30;0.30;;;1.50;99.90;;;;;;5098836;28;20469;-81
2022/03/19 05:52:21;;;;;;;0.20;0.20;;;1.50;99.90;;;;;;5095824;28;20093;-82
2022/03/19 05:54:47;;;;;;;0.30;0.30;;;1.40;99.90;;;;;;5112513;28;20669;-81
2022/03/19 05:57:14;;;;;;;0.20;0.20;;;1.50;99.90;;;;;;5099335;28;20587;-83
2022/03/19 05:59:41;;;;;;;0.20;0.20;;;1.90;99.90;;;;;;5099228;28;20484;-83
2022/03/19 06:02:07;;;;;;;0.22;0.22;;;1.60;99.90;;;;;;5115410;28;20048;-83
2022/03/19 06:04:35;;;;;;;0.20;0.20;;;1.90;99.90;;;;;;5099161;28;20079;-82
2022/03/19 06:07:03;;;;;;;0.20;0.20;;;1.70;99.90;;;;;;5115956;28;20134;-82
2022/03/19 06:09:29;;;;;;;0.20;0.20;;;1.70;99.90;;;;;;5115918;28;20046;-82
2022/03/19 06:11:56;;;;;;;0.20;0.20;;;1.80;99.90;;;;;;5098627;28;20122;-82
2022/03/19 06:14:23;;;;;;;0.28;0.28;;;2.00;99.90;;;;;;5098896;28;20043;-83
2022/03/19 06:16:50;;;;;;;0.30;0.30;;;2.00;99.90;;;;;;5115719;28;20058;-83
2022/03/19 06:19:17;;;;;;;0.20;0.20;;;2.00;99.90;;;;;;5095625;28;20032;-83
2022/03/19 06:21:45;;;;;;;0.30;0.30;;;2.10;99.90;;;;;;5116524;28;20114;-83
2022/03/19 06:24:11;;;;;;;0.20;0.20;;;2.20;99.90;;;;;;5148652;28;20040;-82
2022/03/19 06:26:38;;;;;;;0.30;0.30;;;2.20;99.90;;;;;;5096804;28;20058;-82
2022/03/19 06:29:05;;;;;;;0.20;0.20;;;3.00;99.90;;;;;;5132243;28;20044;-82
2022/03/19 06:31:32;;;;;;;0.22;0.22;;;3.30;99.90;;;;;;5149161;28;20161;-82
2022/03/19 06:33:59;;;;;;;0.25;0.25;;;2.40;99.90;;;;;;5131920;28;20114;-83
2022/03/19 06:39:12;;;;;;;0.20;0.20;;;2.60;99.90;;;;;;5134302;28;20035;-82
2022/03/19 06:41:39;;;;;;;0.10;0.10;;;2.70;99.90;;;;;;5098869;28;20071;-82
2022/03/19 06:44:06;;;;;;;0.20;0.20;;;3.50;99.90;;;;;;5114811;28;20075;-82
2022/03/19 06:46:33;;;;;;;0.20;0.20;;;2.90;99.90;;;;;;5148653;28;20073;-82
2022/03/19 06:49:00;;;;;;;0.20;0.20;;;3.20;99.90;;;;;;5128022;28;20097;-82
2022/03/19 06:51:26;;;;;;;0.20;0.20;;;3.00;99.90;;;;;;5108505;28;20043;-82
2022/03/19 06:53:53;;;;;;;0.20;0.20;;;3.10;99.90;;;;;;5100656;28;20055;-83
2022/03/19 06:56:20;;;;;;;0.20;0.20;;;3.20;99.90;;;;;;5131128;28;20055;-82
2022/03/19 06:58:47;;;;;;;0.17;0.17;;;3.90;99.90;;;;;;5131783;28;20035;-81
2022/03/19 07:01:16;;;;;;;0.20;0.20;;;3.20;99.90;;;;;;5148151;28;20078;-83
2022/03/19 07:03:44;;;;;;;0.20;0.20;;;3.30;99.90;;;;;;5098732;28;20101;-82
2022/03/19 07:06:12;;;;;;;0.20;0.20;;;3.40;99.90;;;;;;5131304;28;20038;-81
2022/03/19 07:08:39;;;;;;;0.20;0.20;;;4.30;99.90;;;;;;5131392;28;20042;-81
2022/03/19 07:11:06;;;;;;;0.20;0.20;;;3.50;99.90;;;;;;5114492;28;20123;-83
2022/03/19 07:13:33;;;;;;;0.20;0.20;;;3.60;99.90;;;;;;5131648;28;20044;-82
2022/03/19 07:15:59;;;;;;;0.20;0.20;;;4.10;99.90;;;;;;5148334;28;20061;-83
2022/03/19 07:18:26;;;;;;;0.13;0.13;;;3.70;99.90;;;;;;5113975;28;20042;-81
2022/03/19 07:20:53;;;;;;;0.25;0.25;;;3.70;99.90;;;;;;5097737;28;20046;-83
2022/03/19 07:23:20;;;;;;;0.20;0.20;;;4.40;99.90;;;;;;5130806;28;20123;-81
2022/03/19 07:25:46;;;;;;;0.20;0.20;;;4.00;99.90;;;;;;5097538;28;20496;-81
2022/03/19 07:28:17;;;;;;;0.10;0.10;;;4.10;99.90;;;;;;5097261;28;20384;-83
2022/03/19 07:30:45;;;;;;;0.20;0.20;;;4.90;99.90;;;;;;5127581;28;20127;-82
2022/03/19 07:33:11;;;;;;;0.28;0.28;;;4.20;99.90;;;;;;5109250;28;20097;-82
2022/03/19 07:35:40;;;;;;;0.20;0.20;;;4.50;99.90;;;;;;5093385;28;20044;-83
2022/03/19 07:38:07;;;;;;;0.20;0.20;;;4.40;99.90;;;;;;5094039;28;20092;-83
2022/03/19 07:43:19;;;;;;;0.20;0.20;;;4.50;99.90;;;;;;5130614;28;20462;-83
2022/03/19 07:45:46;;;;;;;0.20;0.20;;;4.70;99.90;;;;;;5096778;28;20159;-83
2022/03/19 07:48:13;;;;;;;0.17;0.17;;;;;;;;;;5113118;28;20039;-83
2022/03/19 07:50:40;;;;;;;0.20;0.20;;;4.90;99.90;;;;;;5113646;28;20405;-83
2022/03/19 07:53:07;;;;;;;0.20;0.20;;;5.00;99.90;;;;;;5093488;28;20032;-84
2022/03/19 07:55:34;;;;;;;0.10;0.10;;;5.20;99.90;;;;;;5146542;28;20063;-84
2022/03/19 07:58:01;;;;;;;0.10;0.10;;;5.30;99.90;;;;;;5147567;28;20100;-84
2022/03/19 08:00:27;;;;;;;0.20;0.20;;;5.40;99.90;;;;;;5129833;28;20040;-83
2022/03/19 08:02:54;;;;;;;0.15;0.15;;;5.50;99.90;;;;;;5130443;28;20042;-83
2022/03/19 08:05:21;;;;;;;0.15;0.15;;;5.60;99.90;;;;;;5114769;28;20035;-83
2022/03/19 08:07:48;;;;;;;0.20;0.20;;;5.80;99.90;;;;;;5097713;28;20393;-83
2022/03/19 08:10:15;;;;;;;0.10;0.10;;;5.80;99.90;;;;;;5130080;28;20114;-83
2022/03/19 08:12:43;;;;;;;0.20;0.20;;;6.00;99.90;;;;;;5096932;28;20122;-83
2022/03/19 08:15:11;;;;;;;0.10;0.10;;;6.10;99.90;;;;;;5146929;28;20071;-83
2022/03/19 08:17:38;;;;;;;0.20;0.20;;;6.40;99.90;;;;;;5113432;28;20043;-83
2022/03/19 08:20:08;;;;;;;0.20;0.20;;;6.30;99.90;;;;;;5147084;28;20114;-83
2022/03/19 08:22:35;;;;;;;0.30;0.20;;;6.40;99.90;;;;;;5130351;28;20065;-84
2022/03/19 08:25:03;;;;;;;0.10;0.10;;;6.60;99.90;;;;;;5113461;28;20454;-83
2022/03/19 08:27:32;;;;;;;0.10;0.10;;;6.60;99.90;;;;;;5112825;28;20381;-83
2022/03/19 08:29:59;;;;;;;0.10;0.10;;;6.80;99.90;;;;;;5130012;28;20130;-83
2022/03/19 08:32:26;;;;;;;0.10;0.10;;;6.90;99.90;;;;;;5112800;28;20035;-83
2022/03/19 08:34:53;;;;;;;0.10;0.10;;;7.00;99.90;;;;;;5096679;28;20544;-83
2022/03/19 08:37:20;;;;;;;0.10;0.10;;;7.10;99.90;;;;;;5112825;28;20036;-86
2022/03/19 08:42:36;;;;;;;0.15;0.15;;;7.30;99.90;;;;;;5118560;28;20046;-88
2022/03/19 08:45:03;;;;;;;0.10;0.10;;;7.40;99.90;;;;;;5096961;28;20047;-88
2022/03/19 08:47:30;;;;;;;0.10;0.10;;;7.50;99.90;;;;;;5126729;28;20078;-88
2022/03/19 08:49:56;;;;;;;0.10;0.10;;;7.60;99.90;;;;;;5094671;28;20067;-90
2022/03/19 08:52:23;;;;;;;0.10;0.10;;;7.70;99.90;;;;;;5097481;28;20483;-88
2022/03/19 08:54:50;;;;;;;0.10;0.10;;;7.70;99.90;;;;;;5101748;27;20399;-89
2022/03/19 08:57:19;;;;;;;0.20;0.13;;;7.90;99.90;;;;;;5097285;28;20080;-87
2022/03/19 08:59:46;;;;;;;0.10;0.10;;;8.00;99.90;;;;;;5097420;28;20122;-89
2022/03/19 09:02:12;;;;;;;0.10;0.10;;;8.10;99.90;;;;;;5081003;28;20151;-90
2022/03/19 09:04:39;;;;;;;0.10;0.10;;;8.20;99.90;;;;;;5080760;28;20478;-89
2022/03/19 09:07:06;;;;;;;0.10;0.10;;;8.30;99.90;;;;;;5097693;28;20163;-89
2022/03/19 09:09:33;;;;;;;0.10;0.10;;;8.40;99.90;;;;;;5096583;28;20506;-89
2022/03/19 09:11:59;;;;;;;0.10;0.10;;;8.40;99.90;;;;;;5081066;28;20042;-89
2022/03/19 09:14:27;;;;;;;0.10;0.10;;;9.30;99.90;;;;;;5096715;28;20044;-89
2022/03/19 09:16:53;;;;;;;0.10;0.10;;;8.60;99.90;;;;;;5097594;28;20081;-89
2022/03/19 09:19:21;;;;;;;0.10;0.10;;;8.70;99.90;;;;;;5080373;28;20075;-89
2022/03/19 09:21:48;;;;;;;0.10;0.10;;;8.70;99.90;;;;;;5080798;28;20044;-89
2022/03/19 09:24:15;;;;;;;0.10;0.10;;;8.80;99.90;;;;;;5080583;28;20080;-90
2022/03/19 09:26:42;;;;;;;0.10;0.10;;;9.10;99.90;;;;;;5096854;28;20036;-89
2022/03/19 09:29:09;;;;;;;0.10;0.10;;;9.00;99.90;;;;;;5097078;28;20047;-89
2022/03/19 09:31:36;;;;;;;0.10;0.10;;;9.10;99.90;;;;;;5080290;28;20561;-89
2022/03/19 09:34:02;;;;;;;0.10;0.10;;;9.10;99.90;;;;;;5097128;28;20055;-89
2022/03/19 09:36:29;;;;;;;0.10;0.10;;;9.20;99.90;;;;;;5097177;28;20490;-89
2022/03/19 09:38:56;;;;;;;0.00;0.00;;;9.30;99.90;;;;;;5080274;28;20047;-90
2022/03/19 09:41:23;;;;;;;0.10;0.10;;;9.40;99.90;;;;;;5080344;28;20424;-89
2022/03/19 09:43:50;;;;;;;0.00;0.00;;;9.40;99.90;;;;;;5097062;28;20036;-89
2022/03/19 09:46:17;;;;;;;4.68;0.38;;;9.50;99.90;;;;;;5080259;28;20122;-90
2022/03/19 09:48:44;;;;;;;0.00;0.00;;;9.70;99.90;;;;;;5096695;28;20502;-89
2022/03/19 09:51:11;;;;;;;0.10;0.10;;;9.70;99.90;;;;;;5080157;28;20140;-90
2022/03/19 09:53:41;;;;;;;0.10;0.10;;;9.80;99.90;;;;;;5082647;28;20057;-89
2022/03/19 09:56:09;;;;;;;0.10;0.10;;;9.90;99.90;;;;;;5096426;28;20055;-89
2022/03/19 09:58:36;;;;;;;0.00;0.00;;;9.90;99.90;;;;;;5100136;28;20027;-89
2022/03/19 10:01:05;;;;;;;0.00;0.00;;;10.00;99.90;;;;;;5083906;28;20442;-89
2022/03/19 10:03:41;;;;;;;0.03;0.03;;;10.20;99.90;;;;;;5100227;28;20089;-89
2022/03/19 10:08:58;;;;;;;0.10;0.10;;;9.50;99.90;;;;;;5120065;28;20051;-89
2022/03/19 10:11:31;;;;;;;0.00;0.00;;;10.40;99.90;;;;;;5099938;28;20093;-89
2022/03/19 10:13:59;;;;;;;0.00;0.00;;;10.30;99.90;;;;;;5117189;28;20051;-89
2022/03/19 10:16:28;;;;;;;0.05;0.05;;;10.40;99.90;;;;;;5100180;28;20040;-89
2022/03/19 10:19:04;;;;;;;0.00;0.00;;;10.50;99.90;;;;;;5117081;28;20046;-88
2022/03/19 10:21:36;;;;;;;0.00;0.00;;;10.50;99.90;;;;;;5116556;28;20127;-90
2022/03/19 10:24:03;;;;;;;0.05;0.05;;;10.50;99.90;;;;;;5117461;28;20134;-90
2022/03/19 10:26:33;;;;;;;0.00;0.00;;;10.60;99.90;;;;;;5083798;28;20514;-89
2022/03/19 10:29:01;;;;;;;0.00;0.00;;;10.80;99.90;;;;;;5117109;28;20050;-90
2022/03/19 10:31:40;;;;;;;0.10;0.10;;;10.80;99.30;;;;;;5116527;28;20047;-89
2022/03/19 10:34:08;;;;;;;0.00;0.00;;;10.90;99.90;;;;;;5116508;28;20039;-89
2022/03/19 10:36:41;;;;;;;0.10;0.10;;;10.90;99.90;;;;;;5100144;28;20035;-89
2022/03/19 10:39:24;;;;;;;0.00;0.00;;;10.90;96.90;;;;;;5117203;28;20146;-89
2022/03/19 10:41:52;;;;;;;0.00;0.00;;;10.90;99.90;;;;;;5116531;28;20043;-90
2022/03/19 10:44:21;;;;;;;0.00;0.00;;;11.10;99.90;;;;;;5100098;28;20044;-90
2022/03/19 10:46:50;;;;;;;0.00;0.00;;;11.10;99.70;;;;;;5116828;28;20047;-89
2022/03/19 10:49:19;;;;;;;0.08;0.08;;;11.10;99.90;;;;;;5100202;28;20112;-89
2022/03/19 10:51:48;;;;;;;0.05;0.05;;;11.20;99.90;;;;;;5116119;28;20122;-89
2022/03/19 10:54:16;;;;;;;0.10;0.10;;;11.20;99.90;;;;;;5116440;28;20036;-90
2022/03/19 10:56:44;;;;;;;0.10;0.10;;;11.30;99.90;;;;;;5099537;28;20051;-90
2022/03/19 10:59:11;;;;;;;0.10;0.10;;;11.30;97.50;;;;;;5083422;28;20031;-90
2022/03/19 11:01:38;;;;;;;0.00;0.00;;;11.40;99.10;;;;;;5115805;28;20046;-89
2022/03/19 11:04:07;;;;;;;0.10;0.10;;;11.50;99.90;;;;;;5116453;28;20074;-90
2022/03/19 11:06:39;;;;;;;0.00;0.00;;;11.60;98.80;;;;;;5115605;28;20040;-90
2022/03/19 11:09:10;;;;;;;0.00;0.00;;;11.70;99.50;;;;;;5116053;28;20046;-90
2022/03/19 11:11:39;;;;;;;0.00;0.00;;;11.80;99.80;;;;;;5115939;28;20043;-90
2022/03/19 11:14:08;;;;;;;0.00;0.00;;;11.90;97.30;;;;;;5116321;28;20089;-89
2022/03/19 11:16:36;;;;;;;0.00;0.00;;;11.90;99.50;;;;;;5115851;28;20066;-89
2022/03/19 11:19:08;;;;;;;0.00;0.00;;;11.90;94.30;;;;;;5099268;28;20039;-90
2022/03/19 11:21:35;;;;;;;0.00;0.00;;;11.80;92.40;;;;;;5099396;28;20042;-89
2022/03/19 11:24:22;;;;;;;0.00;0.00;;;11.80;92.20;;;;;;5098780;28;20036;-89
2022/03/19 11:26:51;;;;;;;0.00;0.00;;;11.90;92.10;;;;;;5115260;28;20412;-90
2022/03/19 11:29:19;;;;;;;0.00;0.00;;;11.90;87.90;;;;;;5115841;28;20062;-88
2022/03/19 11:31:58;;;;;;;0.10;0.10;;;11.90;86.50;;;;;;5101518;28;20036;-90
2022/03/19 11:34:25;;;;;;;0.00;0.00;;;11.80;86.80;;;;;;5115798;28;20043;-89
2022/03/19 11:37:00;;;;;;;0.00;0.00;;;11.80;90.10;;;;;;5082329;28;20052;-90
2022/03/19 11:39:27;;;;;;;0.00;0.00;;;11.80;86.90;;;;;;5115529;28;20118;-89
2022/03/19 11:41:54;;;;;;;0.00;0.00;;;11.80;88.60;;;;;;5098536;28;20036;-88
2022/03/19 11:44:23;;;;;;;0.00;0.00;;;11.80;87.60;;;;;;5082258;28;20507;-90
2022/03/19 11:46:56;;;;;;;0.00;0.00;;;11.80;90.40;;;;;;5098838;28;20078;-89
2022/03/19 11:49:45;;;;;;;0.00;0.00;;;11.80;89.00;;;;;;5115314;28;20050;-88
2022/03/19 11:52:17;;;;;;;0.00;0.00;;;11.90;86.20;;;;;;5114931;28;20035;-89
2022/03/19 11:55:23;;;;;;;0.00;0.00;;;12.00;90.70;;;;;;5094485;28;20074;-89
2022/03/19 11:57:56;;;;;;;0.00;0.00;;;12.00;84.00;;;;;;5110862;28;20047;-89
2022/03/19 12:00:45;;;;;;;0.00;0.00;;;12.00;86.60;;;;;;5111716;28;20036;-90
2022/03/19 12:03:24;;;;;;;0.00;0.00;;;11.90;84.60;;;;;;5095022;28;20036;-89
2022/03/19 12:05:51;;;;;;;0.00;0.00;;;12.00;90.00;;;;;;5112021;28;20036;-89
2022/03/19 12:08:21;;;;;;;0.00;0.00;;;12.00;88.30;;;;;;5128191;28;20048;-89
2022/03/19 12:10:57;;;;;;;0.00;0.00;;;12.00;85.50;;;;;;5094166;28;20087;-89
2022/03/19 12:13:27;;;;;;;0.00;0.00;;;12.10;88.20;;;;;;5111699;28;20050;-89
2022/03/19 12:15:59;;;;;;;0.00;0.00;;;12.10;86.60;;;;;;5110788;28;20051;-89
2022/03/19 12:18:29;;;;;;;0.00;0.00;;;12.00;83.30;;;;;;5094715;28;20576;-89
2022/03/19 12:21:04;;;;;;;0.00;0.00;;;12.00;78.30;;;;;;5127066;28;20095;-89
2022/03/19 12:23:55;;;;;;;0.00;0.00;;;12.00;81.40;;;;;;5111117;28;20139;-89
2022/03/19 12:26:23;;;;;;;0.00;0.00;;;12.00;85.60;;;;;;5111288;28;20089;-89
2022/03/19 12:29:00;;;;;;;0.25;0.20;;;12.00;80.40;;;;;;5110855;28;20067;-89
2022/03/19 12:31:41;;;;;;;0.00;0.00;;;12.00;81.70;;;;;;5078338;28;20127;-89
2022/03/19 12:34:18;;;;;;;0.00;0.00;;;12.00;84.00;;;;;;5110664;28;20284;-90
2022/03/19 12:36:46;;;;;;;0.00;0.00;;;12.00;80.70;;;;;;5111179;28;20036;-89
2022/03/19 12:39:13;;;;;;;0.08;0.08;;;12.00;82.20;;;;;;5094526;28;20036;-89
2022/03/19 12:41:42;;;;;;;0.00;0.00;;;12.00;81.10;;;;;;5111447;28;20040;-90
2022/03/19 12:44:19;;;;;;;0.03;0.03;;;12.00;82.10;;;;;;5093914;28;20399;-90
2022/03/19 12:46:51;;;;;;;0.00;0.00;;;12.00;85.10;;;;;;5110561;28;20396;-90
2022/03/19 12:49:18;;;;;;;0.00;0.00;;;11.90;80.40;;;;;;5095201;28;20044;-90
2022/03/19 12:51:47;;;;;;;0.00;0.00;;;11.90;80.10;;;;;;5077443;28;20531;-89
2022/03/19 12:54:22;;;;;;;0.00;0.00;;;11.90;78.30;;;;;;5110453;28;20511;-90
2022/03/19 12:56:49;;;;;;;;;;;11.80;79.00;;;;;;5110833;28;20063;-90
2022/03/19 12:59:47;;;;;;;0.00;0.00;;;11.90;79.50;;;;;;5111041;28;19923;-90
2022/03/19 13:02:15;;;;;;;0.00;0.00;;;11.30;80.70;;;;;;5110032;28;20040;-90
2022/03/19 13:04:45;;;;;;;0.00;0.00;;;11.90;79.60;;;;;;5111051;28;20050;-90
2022/03/19 13:07:19;;;;;;;0.00;0.00;;;11.90;79.00;;;;;;5094218;28;20095;-90
2022/03/19 13:09:46;;;;;;;0.03;0.03;;;12.00;80.90;;;;;;5110613;28;20036;-90
2022/03/19 13:12:23;;;;;;;0.00;0.00;;;11.80;80.00;;;;;;5110753;28;20135;-90
2022/03/19 13:14:56;;;;;;;0.10;0.10;;;11.80;80.70;;;;;;5093400;28;20120;-90
2022/03/19 13:17:24;;;;;;;0.00;0.00;;;11.90;80.80;;;;;;5093675;28;20046;-90
2022/03/19 13:19:51;;;;;;;0.00;0.00;;;12.00;83.60;;;;;;5077310;28;20461;-90
2022/03/19 13:22:19;;;;;;;0.05;0.05;;;11.90;83.20;;;;;;5094514;28;20044;-90